Ealing Mini Mile
Skip Navigation Links
Results
Live Leaderboard
Ealing Half Event Results
Race Stats
Smartphone Results
Race Website
23 September 2017
HyperLink
Click your name for detailed results
Page 1 of 4 (197 items)
[1]234
Pos
Bib No
Fav
Share
Print
Name
Gun Time
Chip Time
Category
Cat Pos
Gender
Gen Pos
Club
Pace
110315Nathan BRIDGE6:14.86:14.88s1Male1  9.6 m/hr
210477Sean HAUGHEY6:38.76:38.78s2Male2  9.0 m/hr
310480Theo ASTLEY-JACKSON6:46.56:46.58s3Male3  8.9 m/hr
410465Caspar STROUTS6:49.26:48.88s4Male4  8.8 m/hr
510487Ruben PRESCOD6:51.26:51.28s5Male5PERIVALE PARK ATHLETICS CLUB 8.8 m/hr
610434Pablo JAMES-FITZGERALD6:52.86:52.88s6Male6  8.7 m/hr
710493Samuel SALEM6:58.46:58.48s7Male7  8.6 m/hr
810461Cormac OLIVER7:00.47:00.48s8Male8  8.6 m/hr
910311Josh ELEY7:04.87:04.88s9Male9CHRIST THE SAVIOUR SCHOOL 8.5 m/hr
1010476Ayush GUPTA7:05.37:05.38s10Male10  8.5 m/hr
1110518Kieran RYAN7:07.17:07.18s11Male11  8.4 m/hr
1210354Finlay Paterson DENTON7:07.67:07.68s12Male12  8.4 m/hr
1310491Euan HAMILTON7:08.07:08.08s13Male13  8.4 m/hr
1410350Owen FRY7:10.37:10.38s14Male14  8.4 m/hr
1510495Olly WATSON7:12.37:12.38s15Male15  8.3 m/hr
1610440Max CALLENDER - GALBRAITH7:15.67:15.68s16Male16  8.3 m/hr
1710474Brandon CAO7:17.67:17.68s17Male17  8.2 m/hr
1810415Marie-Helene WHYLE7:19.47:19.48s1Female1  8.2 m/hr
1910497Johnny Golding WOOD7:20.87:20.38s18Male18ACTON AND EALING WHISTLERS 8.2 m/hr
2010325Sam HARNIMAN7:21.57:20.58s19Male19  8.2 m/hr
2110317Luca HARVEY7:22.57:22.58s20Male20  8.1 m/hr
2210351Huw BAKER7:26.07:23.38s21Male21  8.1 m/hr
2310443Aram Kaouk FERNANDEZ7:26.47:26.48s22Male22  8.1 m/hr
2410454Kayden EARL7:27.97:27.98s23Male23  8.0 m/hr
2510304Finlay GARDNER7:28.67:28.68s2Female2  8.0 m/hr
2610357Ewan DUFF-MILLER7:29.77:29.78s24Male24  8.0 m/hr
2710424Atrin NASAR7:31.37:31.38s3Female3ST AUGUSTINE'S PRIORY 8.0 m/hr
2810370Joshua SMITH7:33.67:33.68s25Male25  7.9 m/hr
2910331Tomas Narhlya MARTIN7:38.47:38.48s26Male26  7.9 m/hr
3010389Dante EASTEN7:38.57:38.58s27Male27EALING EAGLES 7.9 m/hr
3110379Maxwell FINN7:39.37:38.18s28Male28  7.8 m/hr
3210355Samson ELLIS7:41.47:38.68s29Male29  7.8 m/hr
3310488Esme WALKER7:42.47:42.18s4Female4EALING EAGLES 7.8 m/hr
3410445Tobias VAN DORP7:43.17:43.18s30Male30  7.8 m/hr
3510442Alexander SUMNER7:45.07:45.08s31Male31  7.7 m/hr
3610435Tristan PAGE7:48.87:48.88s32Male32  7.7 m/hr
3710418Astrid ELLIOTT7:48.97:48.98s5Female5EALING EAGLES 7.7 m/hr
3810392Jake TOYNTON7:49.97:49.98s33Male33  7.7 m/hr
3910337Harry THOMSON7:50.77:48.88s34Male34  7.6 m/hr
4010353Edgar BIRLOUEZ-LEE7:51.97:47.58s35Male35  7.6 m/hr
4110507Joshua BASS7:52.27:52.28s36Male36  7.6 m/hr
4210384Lauren GREEN7:52.47:49.38s6Female6  7.6 m/hr
4310481Ruby EDWARDS7:53.57:49.78s7Female7  7.6 m/hr
4410485Arthur MURPHY7:55.37:55.38s37Male37  7.6 m/hr
4510342Minna WILLIAMS7:55.67:53.78s8Female8  7.6 m/hr
4610453Luca WATERMAN7:58.67:57.78s38Male38  7.5 m/hr
4710449Matthew O'HARE8:01.27:55.88s39Male39  7.5 m/hr
4810473George TIPLADY8:05.08:05.08s40Male40  7.4 m/hr
4910510Joshua MCILVENNA8:05.58:05.58s41Male41CHRIST THE SAVIOUR SCHOOL 7.4 m/hr
5010324Miles GUNDRY8:06.98:06.98s42Male42  7.4 m/hr
Page 1 of 4 (197 items)
[1]234
fb